Time;durP1;ratioP1;P1;durP2;ratioP2;P2;SDS_P1;SDS_P2;PMS_P1;PMS_P2;Temp;Humidity;BMP_temperature;BMP_pressure;BME280_temperature;BME280_humidity;BME280_pressure;Samples;Min_cycle;Max_cycle;Signal;HPM_P1;HPM_P2
2023/03/21 00:00:54;;;;;;;25.33;12.30;;;;;;;4.22;100.00;98926.31;5137255;28;20150;-69
2023/03/21 00:03:20;;;;;;;26.15;12.70;;;;;;;4.13;100.00;98903.06;5137258;28;20043;-65
2023/03/21 00:05:50;;;;;;;34.45;13.05;;;;;;;4.12;100.00;98934.06;5137312;27;20043;-68
2023/03/21 00:08:16;;;;;;;23.55;11.93;;;;;;;4.40;100.00;98935.16;5137369;28;20062;-65
2023/03/21 00:10:43;;;;;;;25.50;12.63;;;;;;;4.41;100.00;98887.09;5137485;28;20054;-70
2023/03/21 00:13:11;;;;;;;30.35;13.10;;;;;;;4.56;100.00;98866.69;5137107;28;20051;-68
2023/03/21 00:15:49;;;;;;;33.25;12.70;;;;;;;4.55;100.00;98819.75;5137487;28;20047;-67
2023/03/21 00:18:15;;;;;;;28.48;12.55;;;;;;;4.60;100.00;98810.59;5137183;28;20107;-70
2023/03/21 00:20:41;;;;;;;28.33;12.63;;;;;;;4.66;100.00;98782.13;5136882;28;20057;-66
2023/03/21 00:23:07;;;;;;;25.65;12.40;;;;;;;4.67;100.00;98759.28;5137196;28;20082;-67
2023/03/21 00:25:33;;;;;;;28.83;12.93;;;;;;;4.67;100.00;98743.00;5137334;28;20051;-66
2023/03/21 00:27:59;;;;;;;29.35;14.07;;;;;;;4.75;100.00;98723.09;5137055;28;20115;-64
2023/03/21 00:30:26;;;;;;;31.05;12.30;;;;;;;4.84;100.00;98720.28;5136771;28;20047;-67
2023/03/21 00:32:51;;;;;;;26.38;12.05;;;;;;;4.88;100.00;98715.75;5137438;28;20083;-65
2023/03/21 00:35:17;;;;;;;26.17;11.52;;;;;;;4.90;100.00;98687.13;5136753;27;20146;-68
2023/03/21 00:37:43;;;;;;;29.42;11.68;;;;;;;4.93;100.00;98718.25;5137121;28;20409;-69
2023/03/21 00:40:11;;;;;;;28.33;12.15;;;;;;;5.08;100.00;98725.72;5136618;28;20138;-70
2023/03/21 00:42:37;;;;;;;29.98;12.05;;;;;;;5.17;100.00;98710.13;5137116;28;20130;-70
2023/03/21 00:45:03;;;;;;;27.52;13.05;;;;;;;5.25;100.00;98689.38;5137123;27;20089;-69
2023/03/21 00:47:30;;;;;;;28.45;13.60;;;;;;;5.32;100.00;98686.88;5140504;28;20328;-66
2023/03/21 00:49:56;;;;;;;27.77;13.07;;;;;;;5.40;100.00;98690.63;5140442;28;20312;-70
2023/03/21 00:52:22;;;;;;;28.08;13.60;;;;;;;5.37;100.00;98694.03;5140035;28;20055;-70
2023/03/21 00:54:48;;;;;;;29.98;13.52;;;;;;;5.45;100.00;98712.13;5140524;28;20138;-66
2023/03/21 00:57:14;;;;;;;31.45;13.88;;;;;;;5.46;100.00;98731.97;5140222;28;20058;-68
2023/03/21 00:59:40;;;;;;;33.70;16.45;;;;;;;5.48;100.00;98773.19;5140120;28;20306;-69
2023/03/21 01:02:06;;;;;;;28.98;13.65;;;;;;;5.56;100.00;98822.00;5140055;28;20058;-70
2023/03/21 01:04:33;;;;;;;31.80;14.05;;;;;;;5.58;100.00;98846.94;5140207;27;20302;-66
2023/03/21 01:06:59;;;;;;;32.42;15.00;;;;;;;5.53;100.00;98859.97;5139839;28;20062;-67
2023/03/21 01:09:26;;;;;;;35.20;14.25;;;;;;;5.46;100.00;98885.00;5140263;28;20143;-68
2023/03/21 01:11:52;;;;;;;29.13;13.00;;;;;;;5.55;100.00;98890.34;5139783;28;20309;-65
2023/03/21 01:14:20;;;;;;;27.88;13.30;;;;;;;5.46;100.00;98895.88;5140242;28;20175;-68
2023/03/21 01:16:46;;;;;;;25.38;12.55;;;;;;;5.40;100.00;98899.97;5139735;28;20142;-65
2023/03/21 01:19:15;;;;;;;36.60;13.70;;;;;;;5.43;100.00;98923.72;5139951;28;20047;-69
2023/03/21 01:21:42;;;;;;;32.45;15.25;;;;;;;5.43;100.00;98937.31;5139896;28;20134;-70
2023/03/21 01:24:09;;;;;;;29.48;15.38;;;;;;;5.52;100.00;98926.38;5139814;28;20146;-68
2023/03/21 01:26:36;;;;;;;32.00;13.75;;;;;;;5.50;100.00;98921.28;5139767;28;20094;-68
2023/03/21 01:29:02;;;;;;;32.15;14.18;;;;;;;5.42;100.00;98936.53;5139463;28;20416;-69
2023/03/21 01:31:28;;;;;;;36.90;14.43;;;;;;;5.46;100.00;98941.28;5139869;28;20134;-67
2023/03/21 01:33:54;;;;;;;31.70;16.13;;;;;;;5.46;100.00;98952.97;5139537;28;20378;-70
2023/03/21 01:36:23;;;;;;;35.88;14.35;;;;;;;5.48;100.00;98952.63;5139824;27;20061;-70
2023/03/21 01:38:50;;;;;;;30.08;15.05;;;;;;;5.37;100.00;98966.66;5139340;28;20420;-66
2023/03/21 01:41:23;;;;;;;30.55;15.23;;;;;;;5.52;100.00;98967.16;5139833;28;20139;-70
2023/03/21 01:43:51;;;;;;;32.28;15.00;;;;;;;5.50;100.00;98961.25;5139377;28;20054;-71
2023/03/21 01:46:36;;;;;;;34.70;15.48;;;;;;;5.40;100.00;98949.69;5139416;28;20070;-67
2023/03/21 01:49:06;;;;;;;35.75;15.10;;;;;;;5.44;100.00;98963.41;5139567;28;20047;-67
2023/03/21 01:51:35;;;;;;;37.58;15.38;;;;;;;5.31;100.00;98953.63;5139271;28;20061;-66
2023/03/21 01:54:03;;;;;;;30.85;15.65;;;;;;;5.34;100.00;98959.16;5139316;28;20342;-71
2023/03/21 01:56:33;;;;;;;36.03;16.50;;;;;;;5.37;100.00;98965.88;5138410;27;20142;-65
2023/03/21 01:59:05;;;;;;;33.20;17.05;;;;;;;5.47;100.00;98970.88;5139274;28;20103;-66
2023/03/21 02:01:33;;;;;;;43.35;18.20;;;;;;;5.34;100.00;98966.53;5139089;28;20047;-67
2023/03/21 02:04:02;;;;;;;41.75;19.20;;;;;;;5.38;100.00;98970.16;5139376;28;20393;-70
2023/03/21 02:06:38;;;;;;;53.42;21.25;;;;;;;5.51;100.00;98971.00;5139027;27;20051;-65
2023/03/21 02:09:10;;;;;;;50.42;20.98;;;;;;;5.50;100.00;98964.78;5138862;28;20047;-68
2023/03/21 02:11:37;;;;;;;50.03;21.52;;;;;;;5.42;100.00;98957.50;5139176;28;20134;-69
2023/03/21 02:14:03;;;;;;;49.05;21.33;;;;;;;5.34;100.00;98959.16;5139082;28;20055;-66
2023/03/21 02:16:40;;;;;;;52.65;21.85;;;;;;;5.43;100.00;98965.31;5139052;28;20066;-70
2023/03/21 02:19:30;;;;;;;50.83;20.60;;;;;;;5.46;100.00;98973.94;5138833;28;20441;-66
2023/03/21 02:22:35;;;;;;;41.65;20.38;;;;;;;5.43;100.00;98969.94;5139090;28;20165;-69
2023/03/21 02:25:40;;;;;;;45.50;20.33;;;;;;;5.50;100.00;98972.94;5125313;28;20100;-66
2023/03/21 02:28:11;;;;;;;;;;;;;;;5.38;100.00;98962.81;5119576;28;20047;-65
2023/03/21 02:31:04;;;;;;;43.97;20.00;;;;;;;5.54;100.00;98973.06;5139278;28;20018;-66
2023/03/21 02:34:08;;;;;;;42.30;18.63;;;;;;;5.57;100.00;98980.53;5138364;28;20050;-66
2023/03/21 02:37:05;;;;;;;45.95;19.33;;;;;;;5.55;100.00;98978.16;5138619;28;20083;-65
2023/03/21 02:39:40;;;;;;;45.10;19.80;;;;;;;5.58;100.00;98971.25;5138407;28;20130;-66
2023/03/21 02:42:15;;;;;;;52.08;21.98;;;;;;;5.60;100.00;98975.22;5138627;28;20137;-65
2023/03/21 02:44:46;;;;;;;51.95;20.67;;;;;;;5.65;100.00;98982.38;5138475;28;20051;-69
2023/03/21 02:47:16;;;;;;;55.15;23.85;;;;;;;5.68;100.00;98981.69;5138725;28;20146;-69
2023/03/21 02:49:50;;;;;;;67.40;24.60;;;;;;;5.61;100.00;98982.25;5138430;28;20061;-67
2023/03/21 02:52:21;;;;;;;58.30;23.48;;;;;;;5.75;100.00;98990.09;5138658;28;20112;-66
2023/03/21 02:54:50;;;;;;;51.50;21.80;;;;;;;5.82;100.00;98982.16;5138349;28;20447;-70
2023/03/21 02:57:18;;;;;;;64.13;25.88;;;;;;;5.66;100.00;98978.50;5138442;28;20409;-70
2023/03/21 02:59:46;;;;;;;65.53;25.70;;;;;;;5.69;100.00;98985.22;5138124;28;20371;-66
2023/03/21 03:02:12;;;;;;;63.83;25.50;;;;;;;5.76;100.00;98975.34;5138243;28;20435;-69
2023/03/21 03:04:38;;;;;;;70.95;27.88;;;;;;;5.86;100.00;98977.66;5137609;27;20480;-70
2023/03/21 03:07:24;;;;;;;55.53;23.20;;;;;;;5.80;100.00;98979.00;5137795;28;20137;-70
2023/03/21 03:10:06;;;;;;;67.53;25.90;;;;;;;5.84;100.00;98971.75;5138062;27;20146;-68
2023/03/21 03:12:43;;;;;;;71.82;29.92;;;;;;;5.59;100.00;98973.63;5137944;28;20172;-68
2023/03/21 03:15:20;;;;;;;62.95;25.92;;;;;;;5.83;100.00;98975.63;5137839;28;20416;-69
2023/03/21 03:17:51;;;;;;;66.85;26.42;;;;;;;5.87;100.00;98973.81;5137766;28;20492;-66
2023/03/21 03:20:23;;;;;;;57.42;25.60;;;;;;;5.87;100.00;98968.38;5138243;28;20395;-70
2023/03/21 03:22:58;;;;;;;61.03;25.80;;;;;;;5.89;100.00;98976.19;5137994;28;20067;-69
2023/03/21 03:25:30;;;;;;;57.35;24.33;;;;;;;5.90;100.00;98972.34;5137641;28;20078;-66
2023/03/21 03:27:58;;;;;;;70.93;24.13;;;;;;;5.86;100.00;98974.94;5137682;28;20138;-67
2023/03/21 03:30:26;;;;;;;65.93;26.92;;;;;;;5.83;100.00;98972.06;5137780;28;20142;-66
2023/03/21 03:32:56;;;;;;;61.33;25.17;;;;;;;5.97;100.00;98980.75;5137809;28;20408;-66
2023/03/21 03:35:23;;;;;;;57.20;24.95;;;;;;;5.96;100.00;98984.59;5137567;27;20392;-68
2023/03/21 03:37:53;;;;;;;65.10;25.77;;;;;;;5.89;100.00;98976.97;5137973;28;20520;-66
2023/03/21 03:40:25;;;;;;;54.60;23.38;;;;;;;6.00;100.00;98990.97;5137521;28;20051;-65
2023/03/21 03:42:52;;;;;;;53.55;23.33;;;;;;;6.08;100.00;98979.19;5137961;28;20047;-66
2023/03/21 03:45:22;;;;;;;44.80;22.65;;;;;;;6.05;100.00;98985.28;5137508;28;20051;-69
2023/03/21 03:47:54;;;;;;;42.50;21.30;;;;;;;6.15;100.00;98983.28;5137502;28;20057;-71
2023/03/21 03:50:26;;;;;;;51.20;21.08;;;;;;;5.97;100.00;98986.22;5137661;28;20047;-65
2023/03/21 03:52:56;;;;;;;48.97;20.67;;;;;;;5.93;100.00;98979.03;5137479;28;20130;-69
2023/03/21 03:55:25;;;;;;;49.05;23.33;;;;;;;6.07;100.00;98985.75;5137631;28;20134;-66
2023/03/21 03:57:52;;;;;;;45.28;21.20;;;;;;;6.12;100.00;98985.53;5137348;28;20138;-70
2023/03/21 04:00:19;;;;;;;45.88;21.55;;;;;;;6.11;100.00;98991.31;5137503;28;20043;-66
2023/03/21 04:02:45;;;;;;;45.03;22.38;;;;;;;6.06;100.00;98989.59;5137150;28;20068;-66
2023/03/21 04:05:12;;;;;;;56.45;22.65;;;;;;;6.14;100.00;98996.09;5137573;27;20076;-70
2023/03/21 04:07:38;;;;;;;53.20;20.85;;;;;;;6.05;100.00;98995.41;5137273;28;20191;-69
2023/03/21 04:10:05;;;;;;;42.85;21.20;;;;;;;6.18;100.00;98988.81;5137284;28;20047;-70
2023/03/21 04:12:31;;;;;;;44.83;22.58;;;;;;;6.09;100.00;98996.28;5137002;28;20141;-70
2023/03/21 04:14:57;;;;;;;40.90;20.25;;;;;;;6.24;100.00;98992.91;5137551;28;20055;-70
2023/03/21 04:17:23;;;;;;;50.17;21.10;;;;;;;6.08;100.00;98992.78;5137220;28;20150;-69
2023/03/21 04:19:50;;;;;;;42.75;20.10;;;;;;;6.29;100.00;98995.41;5137357;27;20057;-67
2023/03/21 04:22:16;;;;;;;39.13;19.75;;;;;;;6.20;100.00;98993.91;5140711;28;20051;-70
2023/03/21 04:24:43;;;;;;;42.55;20.83;;;;;;;6.22;100.00;98981.56;5140420;28;20084;-65
2023/03/21 04:27:09;;;;;;;44.08;20.30;;;;;;;6.29;100.00;98995.41;5140646;28;20076;-68
2023/03/21 04:29:36;;;;;;;42.75;20.02;;;;;;;6.16;100.00;98985.63;5140372;28;20078;-69
2023/03/21 04:32:02;;;;;;;43.00;20.52;;;;;;;6.30;100.00;98980.66;5140980;28;20047;-70
2023/03/21 04:34:28;;;;;;;40.53;19.75;;;;;;;6.49;100.00;98963.72;5140531;27;20065;-69
2023/03/21 04:36:54;;;;;;;37.97;19.05;;;;;;;6.54;100.00;98958.06;5140886;28;20053;-67
2023/03/21 04:39:20;;;;;;;50.58;21.38;;;;;;;6.74;100.00;98947.38;5140572;28;20052;-66
2023/03/21 04:41:47;;;;;;;52.70;20.15;;;;;;;6.83;100.00;98946.09;5140524;28;20369;-65
2023/03/21 04:44:15;;;;;;;44.90;19.15;;;;;;;6.94;100.00;98949.13;5140211;28;20087;-68
2023/03/21 04:46:42;;;;;;;40.25;18.63;;;;;;;6.98;100.00;98949.22;5140038;28;20043;-73
2023/03/21 04:49:08;;;;;;;39.75;18.92;;;;;;;7.01;100.00;98953.97;5140393;28;20057;-63
2023/03/21 04:51:35;;;;;;;49.17;18.85;;;;;;;7.16;100.00;98944.25;5140200;28;20134;-69
2023/03/21 04:54:01;;;;;;;33.88;18.23;;;;;;;7.16;100.00;98955.16;5140658;28;20047;-75
2023/03/21 04:56:31;;;;;;;39.67;19.40;;;;;;;7.25;100.00;98958.53;5139991;28;20062;-67
2023/03/21 04:58:57;;;;;;;40.97;17.90;;;;;;;7.30;100.00;98958.31;5140328;28;20047;-66
2023/03/21 05:02:02;;;;;;;38.00;18.15;;;;;;;7.36;100.00;98972.47;5140066;28;20452;-67
2023/03/21 05:04:28;;;;;;;34.10;16.98;;;;;;;7.33;100.00;98968.53;5140396;27;20386;-74
2023/03/21 05:06:55;;;;;;;35.78;16.55;;;;;;;7.30;100.00;98969.22;5140468;28;20137;-69
2023/03/21 05:09:21;;;;;;;46.92;17.77;;;;;;;7.42;100.00;98969.13;5140117;28;20112;-68
2023/03/21 05:11:48;;;;;;;35.17;18.02;;;;;;;7.39;100.00;98977.22;5139888;28;20431;-59
2023/03/21 05:14:17;;;;;;;41.08;18.63;;;;;;;7.44;100.00;98983.22;5139646;28;20047;-62
2023/03/21 05:16:51;;;;;;;41.20;18.15;;;;;;;7.61;100.00;98981.34;5140157;28;20051;-71
2023/03/21 05:19:19;;;;;;;39.35;16.25;;;;;;;7.64;100.00;98991.53;5139430;28;20192;-62
2023/03/21 05:21:46;;;;;;;34.50;15.70;;;;;;;7.50;100.00;98995.47;5139802;28;20371;-62
2023/03/21 05:24:14;;;;;;;37.60;16.30;;;;;;;7.65;100.00;99010.28;5139202;28;20130;-58
2023/03/21 05:26:41;;;;;;;33.35;16.92;;;;;;;7.63;100.00;99014.50;5139281;28;20059;-58
2023/03/21 05:29:08;;;;;;;38.50;17.50;;;;;;;7.65;100.00;99017.69;5139710;28;20047;-60
2023/03/21 05:31:35;;;;;;;38.90;16.90;;;;;;;7.67;100.00;99026.31;5138097;27;20134;-61
2023/03/21 05:34:01;;;;;;;34.42;17.13;;;;;;;7.64;100.00;99025.06;5139278;28;20071;-68
2023/03/21 05:36:27;;;;;;;30.42;15.02;;;;;;;7.73;100.00;99033.91;5139267;27;20062;-63
2023/03/21 05:38:54;;;;;;;36.88;15.85;;;;;;;7.74;100.00;99034.69;5139463;28;20317;-60
2023/03/21 05:41:20;;;;;;;30.25;15.27;;;;;;;7.84;100.00;99044.31;5139309;28;20057;-63
2023/03/21 05:43:46;;;;;;;33.47;15.85;;;;;;;7.82;100.00;99041.91;5139406;28;20428;-66
2023/03/21 05:46:12;;;;;;;30.00;15.90;;;;;;;7.85;100.00;99043.94;5140473;28;20058;-64
2023/03/21 05:48:38;;;;;;;30.70;14.23;;;;;;;7.89;100.00;99042.09;5141574;28;20047;-58
2023/03/21 05:51:04;;;;;;;29.10;14.73;;;;;;;7.97;100.00;99041.16;5139160;28;20046;-63
2023/03/21 05:53:30;;;;;;;27.02;14.90;;;;;;;7.88;100.00;99037.78;5139391;28;20401;-65
2023/03/21 05:55:57;;;;;;;22.08;13.27;;;;;;;7.55;100.00;99025.22;5138901;28;20404;-63
2023/03/21 05:58:23;;;;;;;25.70;14.13;;;;;;;7.72;100.00;99037.75;5139279;28;20051;-65
2023/03/21 06:00:49;;;;;;;24.83;12.77;;;;;;;7.77;100.00;99028.53;5139130;28;20476;-70
2023/03/21 06:03:15;;;;;;;23.52;11.90;;;;;;;7.83;100.00;99029.06;5138956;28;20059;-63
2023/03/21 06:05:41;;;;;;;28.73;12.98;;;;;;;7.75;100.00;99025.34;5139038;27;20054;-64
2023/03/21 06:08:07;;;;;;;20.48;11.77;;;;;;;7.53;100.00;99023.97;5138661;28;20115;-61
2023/03/21 06:10:33;;;;;;;20.70;11.82;;;;;;;7.68;100.00;99033.34;5138954;28;20051;-62
2023/03/21 06:12:59;;;;;;;23.15;11.20;;;;;;;7.77;100.00;99025.81;5138817;28;20051;-72
2023/03/21 06:15:25;;;;;;;21.55;11.00;;;;;;;7.71;100.00;99019.03;5139485;28;20047;-68
2023/03/21 06:17:51;;;;;;;18.83;10.60;;;;;;;7.74;100.00;99024.56;5138965;28;20054;-69
2023/03/21 06:20:17;;;;;;;23.50;10.43;;;;;;;7.75;100.00;99011.72;5139107;28;20043;-71
2023/03/21 06:22:43;;;;;;;18.45;10.88;;;;;;;7.70;100.00;99020.16;5138175;28;20187;-66
2023/03/21 06:25:10;;;;;;;19.08;9.52;;;;;;;7.88;100.00;99024.16;5138340;28;20051;-64
2023/03/21 06:27:37;;;;;;;20.00;9.50;;;;;;;7.82;100.00;99009.16;5138457;28;20051;-67
2023/03/21 06:30:05;;;;;;;19.60;10.13;;;;;;;7.89;100.00;98990.25;5138433;28;20323;-66
2023/03/21 06:32:31;;;;;;;19.35;9.70;;;;;;;7.87;100.00;98972.66;5138366;28;20358;-65
2023/03/21 06:34:57;;;;;;;17.85;9.60;;;;;;;7.94;100.00;98976.34;5138216;27;20055;-68
2023/03/21 06:37:25;;;;;;;16.60;8.95;;;;;;;8.12;100.00;98963.13;5138689;28;20146;-68
2023/03/21 06:39:51;;;;;;;15.55;8.82;;;;;;;8.19;100.00;98946.13;5137809;28;20047;-67
2023/03/21 06:42:17;;;;;;;18.15;8.82;;;;;;;8.20;100.00;98931.34;5137994;27;20400;-68
2023/03/21 06:44:43;;;;;;;14.88;9.10;;;;;;;8.29;100.00;98917.47;5137604;28;20495;-69
2023/03/21 06:47:09;;;;;;;14.50;7.75;;;;;;;8.40;100.00;98867.44;5138396;28;20141;-71
2023/03/21 06:49:35;;;;;;;11.95;7.75;;;;;;;8.40;100.00;98853.78;5138256;28;20043;-72
2023/03/21 06:52:01;;;;;;;13.88;7.32;;;;;;;8.31;100.00;98789.56;5138597;28;20444;-66
2023/03/21 06:54:28;;;;;;;16.58;8.30;;;;;;;8.20;100.00;98820.16;5137991;28;20491;-64
2023/03/21 06:56:54;;;;;;;14.27;7.03;;;;;;;8.18;100.00;98862.63;5138370;28;20146;-73
2023/03/21 06:59:21;;;;;;;14.25;7.07;;;;;;;8.15;100.00;98846.94;5138381;28;20350;-73
2023/03/21 07:01:47;;;;;;;14.30;8.30;;;;;;;8.06;100.00;98855.31;5137994;28;20111;-62
2023/03/21 07:04:13;;;;;;;12.48;7.50;;;;;;;8.11;100.00;98862.47;5137837;27;20054;-71
2023/03/21 07:06:39;;;;;;;13.30;7.15;;;;;;;8.19;100.00;98856.78;5138096;28;20166;-74
2023/03/21 07:09:06;;;;;;;14.02;7.57;;;;;;;8.24;100.00;98831.94;5138125;28;20092;-68
2023/03/21 07:11:32;;;;;;;15.40;7.20;;;;;;;8.20;100.00;98838.50;5137694;28;20446;-69
2023/03/21 07:13:58;;;;;;;13.20;7.00;;;;;;;8.35;100.00;98839.59;5137886;28;20057;-67
2023/03/21 07:16:24;;;;;;;14.68;6.13;;;;;;;8.17;100.00;98776.41;5138004;28;20047;-64
2023/03/21 07:18:50;;;;;;;10.77;6.38;;;;;;;7.87;100.00;98766.00;5137942;28;20087;-63
2023/03/21 07:21:17;;;;;;;12.10;7.00;;;;;;;7.99;100.00;98792.38;5137465;28;20133;-59
2023/03/21 07:23:43;;;;;;;12.20;5.88;;;;;;;7.94;100.00;98781.75;5137683;28;20137;-59
2023/03/21 07:26:09;;;;;;;13.07;6.13;;;;;;;8.26;100.00;98801.53;5137689;28;20063;-67
2023/03/21 07:28:35;;;;;;;8.57;5.47;;;;;;;8.41;100.00;98743.38;5137294;28;20051;-64
2023/03/21 07:31:04;;;;;;;10.98;5.60;;;;;;;8.32;100.00;98660.03;5137524;28;20058;-57
2023/03/21 07:33:30;;;;;;;9.77;5.63;;;;;;;8.76;100.00;98655.00;5137410;28;20421;-58
2023/03/21 07:35:56;;;;;;;9.68;5.25;;;;;;;9.28;100.00;98513.97;5137757;27;20051;-62
2023/03/21 07:38:23;;;;;;;8.60;4.80;;;;;;;9.42;100.00;98319.13;5137317;28;20119;-69
2023/03/21 07:40:49;;;;;;;9.60;5.05;;;;;;;9.41;100.00;98225.31;5137679;28;20324;-60
2023/03/21 07:43:16;;;;;;;9.10;4.78;;;;;;;9.48;100.00;98144.47;5137148;28;20377;-68
2023/03/21 07:45:43;;;;;;;9.02;4.80;;;;;;;9.49;100.00;98078.41;5137577;28;20054;-71
2023/03/21 07:48:09;;;;;;;8.80;4.50;;;;;;;9.42;100.00;97988.91;5137209;28;20292;-70
2023/03/21 07:50:35;;;;;;;5.80;3.60;;;;;;;9.31;100.00;98000.97;5137675;28;20208;-65
2023/03/21 07:53:01;;;;;;;8.40;4.55;;;;;;;9.31;100.00;98040.06;5137314;28;20408;-65
2023/03/21 07:55:28;;;;;;;7.65;3.85;;;;;;;9.23;100.00;98024.78;5136401;27;20134;-60
2023/03/21 07:57:53;;;;;;;9.20;3.92;;;;;;;9.24;100.00;98011.91;5137204;28;20154;-65
2023/03/21 08:00:21;;;;;;;7.93;4.32;;;;;;;9.35;100.00;98029.13;5137360;28;20075;-64
2023/03/21 08:02:53;;;;;;;9.27;4.32;;;;;;;9.32;100.00;98027.94;5137164;28;20054;-61
2023/03/21 08:05:19;;;;;;;5.47;3.70;;;;;;;9.61;100.00;97989.75;5136941;27;20138;-68
2023/03/21 08:07:46;;;;;;;9.05;4.38;;;;;;;9.53;100.00;97960.78;5137381;28;20050;-69
2023/03/21 08:10:12;;;;;;;6.72;3.90;;;;;;;9.64;100.00;97913.13;5137368;28;20043;-68
2023/03/21 08:12:39;;;;;;;6.18;3.88;;;;;;;9.89;100.00;97910.41;5138074;28;20138;-57
2023/03/21 08:15:06;;;;;;;8.68;4.50;;;;;;;9.58;100.00;97853.72;5137208;28;20393;-59
2023/03/21 08:17:32;;;;;;;7.80;3.83;;;;;;;9.64;100.00;97912.34;5137805;28;20091;-71
2023/03/21 08:19:58;;;;;;;5.65;3.63;;;;;;;9.51;100.00;97848.25;5137381;28;20089;-74
2023/03/21 08:22:23;;;;;;;6.85;3.45;;;;;;;9.40;100.00;97856.44;5136856;28;20447;-67
2023/03/21 08:24:49;;;;;;;5.43;3.15;;;;;;;9.33;100.00;97856.41;5136806;28;20093;-65
2023/03/21 08:27:15;;;;;;;5.97;3.25;;;;;;;9.08;100.00;97881.75;5136528;28;20192;-63
2023/03/21 08:29:42;;;;;;;6.80;3.47;;;;;;;9.02;100.00;97948.91;5136817;28;20134;-60
2023/03/21 08:32:08;;;;;;;5.43;3.50;;;;;;;9.25;100.00;97988.84;5137097;28;20055;-62
2023/03/21 08:34:34;;;;;;;8.45;4.95;;;;;;;9.15;100.00;98002.06;5137076;27;20120;-66
2023/03/21 08:37:00;;;;;;;8.80;4.90;;;;;;;9.40;100.00;97987.75;5136837;28;20471;-69
2023/03/21 08:39:27;;;;;;;4.75;3.08;;;;;;;9.82;100.00;97890.47;5137018;28;20055;-71
2023/03/21 08:41:53;;;;;;;6.72;3.15;;;;;;;9.63;100.00;97824.03;5136712;28;20104;-67
2023/03/21 08:44:20;;;;;;;6.47;2.97;;;;;;;9.40;100.00;97804.47;5136993;28;20065;-66
2023/03/21 08:46:47;;;;;;;4.75;3.10;;;;;;;9.39;100.00;97802.88;5136444;28;20079;-66
2023/03/21 08:49:13;;;;;;;7.13;3.08;;;;;;;9.46;100.00;97840.41;5136176;28;20134;-64
2023/03/21 08:51:40;;;;;;;4.75;3.40;;;;;;;9.48;100.00;97852.53;5136524;28;20116;-65
2023/03/21 08:54:06;;;;;;;5.60;3.33;;;;;;;9.47;100.00;97856.44;5136853;28;20065;-65
2023/03/21 08:56:32;;;;;;;6.38;4.28;;;;;;;9.47;100.00;97892.00;5136836;28;20145;-64
2023/03/21 08:59:01;;;;;;;10.02;5.10;;;;;;;9.33;100.00;97884.56;5137301;28;20483;-61
2023/03/21 09:01:27;;;;;;;6.00;3.60;;;;;;;9.57;100.00;97902.19;5137219;28;20047;-63
2023/03/21 09:03:54;;;;;;;7.80;3.65;;;;;;;9.31;100.00;97862.28;5136788;28;20054;-71
2023/03/21 09:06:20;;;;;;;5.70;3.60;;;;;;;9.44;100.00;97909.19;5137758;27;20051;-69
2023/03/21 09:08:47;;;;;;;8.00;4.30;;;;;;;9.24;100.00;97922.44;5139684;28;20054;-62
2023/03/21 09:11:13;;;;;;;4.80;3.08;;;;;;;9.74;100.00;97886.97;5140204;28;20047;-63
2023/03/21 09:13:39;;;;;;;5.82;2.97;;;;;;;9.73;100.00;97852.56;5139502;28;20413;-71
2023/03/21 09:16:05;;;;;;;8.57;3.55;;;;;;;9.71;100.00;97827.53;5140000;28;20054;-69
2023/03/21 09:18:45;;;;;;;6.60;3.45;;;;;;;9.67;100.00;97810.34;5140481;28;20111;-69
2023/03/21 09:21:13;;;;;;;6.15;3.88;;;;;;;9.85;100.00;97797.41;5140359;28;20089;-61
2023/03/21 09:23:40;;;;;;;6.13;3.15;;;;;;;9.72;100.00;97790.78;5139778;28;20155;-62
2023/03/21 09:26:07;;;;;;;6.35;3.35;;;;;;;9.59;100.00;97778.66;5139729;28;20051;-69
2023/03/21 09:28:33;;;;;;;3.80;2.40;;;;;;;9.40;100.00;97777.91;5139734;28;20415;-67
2023/03/21 09:31:01;;;;;;;6.70;3.10;;;;;;;9.54;100.00;97788.06;5140273;28;20546;-66
2023/03/21 09:33:28;;;;;;;6.40;2.70;;;;;;;9.76;100.00;97766.91;5140226;28;20043;-66
2023/03/21 09:35:54;;;;;;;5.57;2.35;;;;;;;10.02;100.00;97745.75;5139499;27;20050;-63
2023/03/21 09:38:21;;;;;;;6.10;2.72;;;;;;;10.20;100.00;97735.53;5140163;28;20146;-71
2023/03/21 09:41:03;;;;;;;6.50;3.22;;;;;;;10.32;100.00;97723.38;5140063;28;20062;-72
2023/03/21 09:43:51;;;;;;;6.63;2.83;;;;;;;10.26;100.00;97723.03;5139836;28;20200;-64
2023/03/21 09:46:26;;;;;;;4.65;2.03;;;;;;;10.09;100.00;97726.56;5139760;28;20051;-68
2023/03/21 09:48:56;;;;;;;3.92;2.40;;;;;;;10.07;100.00;97731.66;5139900;28;20062;-65
2023/03/21 09:51:27;;;;;;;3.88;2.70;;;;;;;9.99;100.00;97727.38;5140622;28;20047;-72
2023/03/21 09:53:56;;;;;;;6.32;2.63;;;;;;;9.71;100.00;97741.91;5139550;28;20078;-64
2023/03/21 09:56:24;;;;;;;7.35;3.80;;;;;;;9.72;100.00;97749.72;5139741;28;20099;-66
2023/03/21 09:58:55;;;;;;;4.13;3.13;;;;;;;9.89;100.00;97759.84;5140383;28;20047;-67
2023/03/21 10:01:27;;;;;;;6.20;2.97;;;;;;;9.75;100.00;97750.91;5140898;28;20055;-69
2023/03/21 10:03:54;;;;;;;5.10;2.38;;;;;;;9.63;100.00;97760.31;5142780;28;20066;-72
2023/03/21 10:06:28;;;;;;;3.83;2.60;;;;;;;9.65;100.00;97758.72;5141090;27;20051;-66
2023/03/21 10:08:58;;;;;;;3.40;2.30;;;;;;;9.52;100.00;97790.38;5140619;28;20070;-62
2023/03/21 10:11:27;;;;;;;5.95;2.97;;;;;;;9.58;100.00;97799.00;5140330;28;20065;-66
2023/03/21 10:13:56;;;;;;;4.70;3.15;;;;;;;9.51;100.00;97785.31;5140240;28;20336;-66
2023/03/21 10:16:28;;;;;;;3.08;2.28;;;;;;;9.56;100.00;97782.19;5139551;28;20059;-71
2023/03/21 10:18:55;;;;;;;2.55;2.30;;;;;;;9.29;100.00;97798.97;5138776;27;20081;-70
2023/03/21 10:21:23;;;;;;;3.75;2.40;;;;;;;9.56;100.00;97829.50;5139214;28;20137;-66
2023/03/21 10:23:52;;;;;;;2.92;2.10;;;;;;;9.42;100.00;97804.84;5139305;28;20492;-66
2023/03/21 10:26:21;;;;;;;3.53;2.17;;;;;;;9.47;100.00;97801.75;5139582;28;20379;-66
2023/03/21 10:28:48;;;;;;;4.90;2.22;;;;;;;9.58;100.00;97804.47;5139044;28;20142;-64
2023/03/21 10:31:18;;;;;;;3.92;2.30;;;;;;;9.60;100.00;97781.03;5139190;28;20107;-71
2023/03/21 10:33:47;;;;;;;2.28;1.92;;;;;;;9.70;100.00;97776.72;5139165;28;20492;-66
2023/03/21 10:36:16;;;;;;;2.35;2.08;;;;;;;9.88;100.00;97750.09;5139036;27;20138;-70
2023/03/21 10:38:46;;;;;;;3.08;2.03;;;;;;;9.71;100.00;97758.34;5139108;28;20070;-67
2023/03/21 10:41:12;;;;;;;4.65;2.25;;;;;;;9.79;100.00;97757.91;5139036;28;20134;-70
2023/03/21 10:43:40;;;;;;;8.60;3.05;;;;;;;10.26;100.00;97775.06;5138765;28;20054;-65
2023/03/21 10:46:10;;;;;;;4.32;2.47;;;;;;;10.03;100.00;97761.78;5139102;28;20082;-71
2023/03/21 10:48:37;;;;;;;6.90;2.88;;;;;;;9.94;100.00;97766.13;5138502;28;20051;-74
2023/03/21 10:51:07;;;;;;;4.65;2.80;;;;;;;9.60;100.00;97780.25;5138530;28;20083;-61
2023/03/21 10:53:38;;;;;;;3.80;2.42;;;;;;;9.65;100.00;97820.88;5138512;28;20385;-69
2023/03/21 10:56:09;;;;;;;4.78;2.92;;;;;;;9.58;100.00;97837.31;5138666;28;20051;-66
2023/03/21 10:58:41;;;;;;;5.10;2.90;;;;;;;9.35;100.00;97840.41;5138479;28;20084;-66
2023/03/21 11:01:14;;;;;;;9.20;3.35;;;;;;;9.13;100.00;97957.94;5137584;28;20043;-61
2023/03/21 11:03:42;;;;;;;3.78;2.63;;;;;;;9.29;100.00;97948.59;5138471;28;20051;-67
2023/03/21 11:06:14;;;;;;;4.43;3.10;;;;;;;9.07;100.00;98022.34;5137999;27;20058;-69
2023/03/21 11:08:45;;;;;;;4.43;2.85;;;;;;;8.93;100.00;98022.28;5137800;28;20051;-61
2023/03/21 11:11:19;;;;;;;6.00;2.90;;;;;;;8.93;100.00;98044.16;5138137;28;20082;-61
2023/03/21 11:13:45;;;;;;;3.83;2.72;;;;;;;9.02;100.00;98058.25;5138076;28;20102;-68
2023/03/21 11:16:21;;;;;;;8.82;4.97;;;;;;;8.75;100.00;98078.75;5138116;28;20057;-67
2023/03/21 11:18:50;;;;;;;4.32;3.20;;;;;;;9.03;100.00;98135.56;5137996;28;20251;-63
2023/03/21 11:21:16;;;;;;;6.97;3.67;;;;;;;9.02;100.00;98112.91;5137908;28;20139;-61
2023/03/21 11:23:46;;;;;;;9.40;4.95;;;;;;;9.14;100.00;98070.81;5137812;28;20051;-64
2023/03/21 11:26:22;;;;;;;7.88;3.70;;;;;;;8.93;100.00;98049.63;5138037;28;20047;-64
2023/03/21 11:28:50;;;;;;;6.07;3.40;;;;;;;9.30;100.00;98016.63;5137371;27;20051;-70
2023/03/21 11:31:17;;;;;;;7.30;4.10;;;;;;;9.38;100.00;98006.47;5137557;28;20055;-73